Time;durP1;ratioP1;P1;durP2;ratioP2;P2;SDS_P1;SDS_P2;PMS_P1;PMS_P2;Temp;Humidity;BMP_temperature;BMP_pressure;BME280_temperature;BME280_humidity;BME280_pressure;Samples;Min_cycle;Max_cycle;Signal;HPM_P1;HPM_P2
2021/07/16 00:00:19;;;;;;;;;;;;;;;27.86;40.78;100415.63;5098464;28;794;-35
2021/07/16 00:02:44;;;;;;;;;;;;;;;27.72;40.30;100417.38;5095488;28;779;-35
2021/07/16 00:05:10;;;;;;;;;;;;;;;25.72;43.51;100409.03;5098704;28;743;-35
2021/07/16 00:07:36;;;;;;;;;;;;;;;26.11;44.94;100417.97;5098489;28;1909;-37
2021/07/16 00:10:02;;;;;;;;;;;;;;;27.44;41.55;100410.91;5098230;28;839;-38
2021/07/16 00:12:28;;;;;;;;;;;;;;;27.73;41.14;100410.94;5097956;28;931;-37
2021/07/16 00:14:53;;;;;;;;;;;;;;;27.80;42.89;100411.00;5098382;28;787;-36
2021/07/16 00:17:18;;;;;;;;;;;;;;;25.76;43.73;100397.72;5098450;28;811;-37
2021/07/16 00:19:43;;;;;;;;;;;;;;;25.61;47.17;100394.13;5097873;28;823;-35
2021/07/16 00:22:09;;;;;;;;;;;;;;;27.28;42.21;100400.34;5097911;28;751;-37
2021/07/16 00:24:34;;;;;;;;;;;;;;;27.68;41.84;100395.31;5097742;28;868;-37
2021/07/16 00:27:01;;;;;;;;;;;;;;;27.98;42.58;100396.97;5097814;28;958;-38
2021/07/16 00:29:28;;;;;;;;;;;;;;;26.09;43.30;100401.13;5097933;28;1967;-35
2021/07/16 00:31:53;;;;;;;;;;;;;;;25.24;48.50;100396.59;5097782;28;827;-31
2021/07/16 00:34:19;;;;;;;;;;;;;;;26.96;42.94;100393.34;5097515;28;806;-35
2021/07/16 00:36:44;;;;;;;;;;;;;;;27.41;43.38;100394.25;5097972;28;803;-29
2021/07/16 00:39:09;;;;;;;;;;;;;;;28.07;40.87;100392.28;5079612;28;1369;-36
2021/07/16 00:41:34;;;;;;;;;;;;;;;26.51;42.29;100394.25;5097058;28;969;-37
2021/07/16 00:44:01;;;;;;;;;;;;;;;25.38;45.30;100384.19;5098041;28;1033;-35
2021/07/16 00:46:26;;;;;;;;;;;;;;;26.69;43.82;100394.91;5097838;28;743;-36
2021/07/16 00:48:51;;;;;;;;;;;;;;;27.28;44.07;100400.34;5097149;28;1914;-38
2021/07/16 00:51:16;;;;;;;;;;;;;;;27.96;41.27;100394.47;5090724;28;1329;-34
2021/07/16 00:53:42;;;;;;;;;;;;;;;27.22;40.75;100391.16;5077631;28;816;-37
2021/07/16 00:56:07;;;;;;;;;;;;;;;25.49;44.76;100385.66;5080374;28;951;-26
2021/07/16 00:58:32;;;;;;;;;;;;;;;26.29;44.77;100390.63;5097511;28;832;-36
2021/07/16 01:00:57;;;;;;;;;;;;;;;27.38;43.53;100384.63;5097262;28;798;-35
2021/07/16 01:03:23;;;;;;;;;;;;;;;27.90;41.70;100387.16;5079375;28;865;-33
2021/07/16 01:05:48;;;;;;;;;;;;;;;27.87;43.01;100384.88;5097579;28;815;-36
2021/07/16 01:08:13;;;;;;;;;;;;;;;25.64;44.40;100383.84;5097423;28;1963;-25
2021/07/16 01:10:39;;;;;;;;;;;;;;;25.78;46.42;100389.44;5097044;28;771;-33
2021/07/16 01:13:07;;;;;;;;;;;;;;;27.38;42.14;100387.34;5078047;28;943;-34
2021/07/16 01:15:33;;;;;;;;;;;;;;;27.73;41.98;100384.75;5097197;28;813;-36
2021/07/16 01:17:58;;;;;;;;;;;;;;;27.91;42.90;100380.72;5096812;28;889;-35
2021/07/16 01:20:26;;;;;;;;;;;;;;;26.18;43.36;100378.44;5097505;28;784;-26
2021/07/16 01:22:52;;;;;;;;;;;;;;;25.41;47.76;100379.28;5097439;28;827;-24
2021/07/16 01:25:18;;;;;;;;;;;;;;;27.20;42.74;100377.84;5078926;28;805;-26
2021/07/16 01:27:44;;;;;;;;;;;;;;;27.47;42.78;100374.53;5096729;28;1901;-28
2021/07/16 01:30:10;;;;;;;;;;;;;;;27.92;42.46;100371.59;5096994;28;823;-36
2021/07/16 01:32:37;;;;;;;;;;;;;;;26.49;42.91;100374.72;5096499;28;772;-26
2021/07/16 01:35:02;;;;;;;;;;;;;;;25.10;47.13;100366.75;5096356;28;740;-34
2021/07/16 01:37:27;;;;;;;;;;;;;;;26.74;43.72;100370.88;5096854;28;788;-37
2021/07/16 01:39:53;;;;;;;;;;;;;;;27.27;44.22;100369.81;5096563;28;874;-36
2021/07/16 01:42:18;;;;;;;;;;;;;;;25.72;44.38;100374.88;5096903;28;935;-24
2021/07/16 01:44:43;;;;;;;;;;;;;;;25.90;46.18;100373.69;5096740;28;860;-27
2021/07/16 01:47:10;;;;;;;;;;;;;;;27.33;42.46;100368.19;5096897;28;1026;-38
2021/07/16 01:49:35;;;;;;;;;;;;;;;27.72;42.04;100358.78;5096692;28;1918;-34
2021/07/16 01:52:00;;;;;;;;;;;;;;;27.75;42.94;100362.94;5065572;28;1226;-32
2021/07/16 01:54:25;;;;;;;;;;;;;;;26.13;43.38;100370.06;5076335;28;859;-35
2021/07/16 01:56:51;;;;;;;;;;;;;;;25.29;48.46;100369.97;5086035;28;947;-33
2021/07/16 01:59:16;;;;;;;;;;;;;;;26.89;43.16;100371.66;5096289;28;511;-36
2021/07/16 02:01:41;;;;;;;;;;;;;;;27.27;43.99;100372.50;5096820;28;778;-25
2021/07/16 02:04:06;;;;;;;;;;;;;;;27.95;41.30;100365.78;5096433;28;803;-33
2021/07/16 02:06:32;;;;;;;;;;;;;;;26.83;42.92;100369.75;5096516;28;764;-36
2021/07/16 02:08:57;;;;;;;;;;;;;;;25.40;45.26;100366.00;5096262;28;1898;-35
2021/07/16 02:11:23;;;;;;;;;;;;;;;26.50;44.68;100368.31;5096039;28;959;-36
2021/07/16 02:13:49;;;;;;;;;;;;;;;27.31;44.00;100365.66;5096485;28;829;-26
2021/07/16 02:16:14;;;;;;;;;;;;;;;27.81;41.84;100366.75;5096288;28;771;-27
2021/07/16 02:18:40;;;;;;;;;;;;;;;27.76;43.03;100364.59;5096614;28;792;-34
2021/07/16 02:21:05;;;;;;;;;;;;;;;25.46;44.50;100367.97;5096033;28;871;-26
2021/07/16 02:23:30;;;;;;;;;;;;;;;26.03;45.85;100370.34;5096421;28;819;-31
2021/07/16 02:25:56;;;;;;;;;;;;;;;27.41;42.58;100368.03;5095528;28;1002;-32
2021/07/16 02:28:22;;;;;;;;;;;;;;;27.67;42.26;100374.72;5096251;28;1893;-37
2021/07/16 02:30:47;;;;;;;;;;;;;;;27.66;43.63;100367.63;5078246;28;787;-25
2021/07/16 02:33:13;;;;;;;;;;;;;;;25.86;43.96;100367.81;5096445;28;744;-35
2021/07/16 02:35:38;;;;;;;;;;;;;;;25.70;46.93;100366.13;5096042;28;811;-33
2021/07/16 02:38:04;;;;;;;;;;;;;;;27.24;42.82;100372.91;5096283;28;772;-27
2021/07/16 02:40:29;;;;;;;;;;;;;;;27.50;42.66;100361.50;5096579;28;1013;-37
2021/07/16 02:42:54;;;;;;;;;;;;;;;27.83;42.72;100362.78;5095345;28;950;-37
2021/07/16 02:45:21;;;;;;;;;;;;;;;26.27;43.54;100371.94;5096245;28;819;-37
2021/07/16 02:47:46;;;;;;;;;;;;;;;25.41;47.48;100373.91;5098268;28;1909;-33
2021/07/16 02:50:22;;;;;;;;;;;;;;;27.02;42.90;100381.81;5099823;28;808;-35
2021/07/16 02:52:47;;;;;;;;;;;;;;;27.47;43.22;100374.53;5099950;28;1127;-28
2021/07/16 02:55:13;;;;;;;;;;;;;;;28.06;41.27;100386.00;5099889;28;827;-36
2021/07/16 02:57:38;;;;;;;;;;;;;;;26.55;41.83;100385.78;5099220;28;903;-37
2021/07/16 03:00:04;;;;;;;;;;;;;;;25.46;45.02;100383.31;5100108;28;809;-27
2021/07/16 03:02:30;;;;;;;;;;;;;;;26.69;43.44;100384.94;5100102;28;751;-26
2021/07/16 03:04:58;;;;;;;;;;;;;;;27.16;44.63;100384.63;5099393;28;554;-25
2021/07/16 03:07:23;;;;;;;;;;;;;;;27.93;41.21;100383.22;5099643;28;855;-28
2021/07/16 03:09:49;;;;;;;;;;;;;;;27.18;40.74;100379.88;5099248;28;1965;-33
2021/07/16 03:12:14;;;;;;;;;;;;;;;25.47;44.96;100383.13;5099097;28;902;-24
2021/07/16 03:14:39;;;;;;;;;;;;;;;26.40;45.54;100383.94;5099706;28;815;-24
2021/07/16 03:17:05;;;;;;;;;;;;;;;27.42;44.17;100375.13;5099296;28;861;-27
2021/07/16 03:19:31;;;;;;;;;;;;;;;26.35;43.81;100376.44;5099394;28;748;-37
2021/07/16 03:21:56;;;;;;;;;;;;;;;25.20;48.88;100377.28;5099267;28;827;-23
2021/07/16 03:24:22;;;;;;;;;;;;;;;26.92;44.17;100375.88;5099358;28;802;-29
2021/07/16 03:26:47;;;;;;;;;;;;;;;27.30;44.46;100374.81;5098459;28;955;-25
2021/07/16 03:29:13;;;;;;;;;;;;;;;27.95;41.74;100371.19;5098962;28;1906;-36
2021/07/16 03:31:39;;;;;;;;;;;;;;;27.10;42.62;100366.50;5099078;28;1003;-26
2021/07/16 03:34:04;;;;;;;;;;;;;;;26.34;44.51;100372.03;5099190;28;831;-31
2021/07/16 03:36:29;;;;;;;;;;;;;;;26.71;47.78;100369.38;5098876;28;823;-26
2021/07/16 03:38:55;;;;;;;;;;;;;;;27.05;48.01;100375.19;5098637;28;815;-27
2021/07/16 03:41:20;;;;;;;;;;;;;;;27.47;46.69;100371.84;5098320;28;998;-33
2021/07/16 03:43:46;;;;;;;;;;;;;;;27.49;45.45;100377.91;5098833;28;810;-31
2021/07/16 03:46:11;;;;;;;;;;;;;;;26.76;44.59;100380.44;5098679;28;771;-34
2021/07/16 03:48:36;;;;;;;;;;;;;;;26.80;46.91;100385.47;5098273;28;1989;-34
2021/07/16 03:51:01;;;;;;;;;;;;;;;27.31;46.37;100392.69;5094126;28;1186;-36
2021/07/16 03:53:27;;;;;;;;;;;;;;;27.32;48.15;100390.81;5078426;28;929;-27
2021/07/16 03:55:52;;;;;;;;;;;;;;;21.98;56.66;100396.47;5078756;28;959;-27
2021/07/16 03:58:17;;;;;;;;;;;;;;;20.37;57.17;100392.47;5098188;28;831;-24
2021/07/16 04:00:43;;;;;;;;;;;;;;;20.96;53.84;100400.22;5098612;28;783;-33
2021/07/16 04:03:08;;;;;;;;;;;;;;;21.02;51.62;100404.97;5098634;28;830;-35
2021/07/16 04:05:34;;;;;;;;;;;;;;;20.93;49.74;100408.53;5098627;28;799;-32
2021/07/16 04:08:05;;;;;;;;;;;;;;;20.80;48.22;100414.22;5097922;28;1962;-25
2021/07/16 04:10:35;;;;;;;;;;;;;;;20.36;48.70;100414.81;5098129;28;843;-37
2021/07/16 04:13:01;;;;;;;;;;;;;;;20.18;49.15;100419.09;5097877;28;939;-27
2021/07/16 04:15:26;;;;;;;;;;;;;;;19.64;50.58;100427.53;5098353;28;810;-32
2021/07/16 04:17:52;;;;;;;;;;;;;;;19.31;50.96;100409.13;5098200;28;825;-35
2021/07/16 04:20:17;;;;;;;;;;;;;;;19.01;51.80;100416.22;5098616;28;811;-26
2021/07/16 04:22:44;;;;;;;;;;;;;;;18.97;52.01;100410.31;5097934;28;811;-36
2021/07/16 04:25:14;;;;;;;;;;;;;;;18.96;53.49;100405.09;5098349;28;762;-36
2021/07/16 04:27:40;;;;;;;;;;;;;;;19.02;53.04;100411.72;5097390;28;1968;-34
2021/07/16 04:30:05;;;;;;;;;;;;;;;18.83;53.34;100413.34;5098336;28;767;-35
2021/07/16 04:32:31;;;;;;;;;;;;;;;18.60;53.50;100411.72;5098125;28;782;-32
2021/07/16 04:34:56;;;;;;;;;;;;;;;18.63;54.76;100423.09;5079901;28;787;-25
2021/07/16 04:37:21;;;;;;;;;;;;;;;18.64;56.24;100424.75;5097780;28;863;-27
2021/07/16 04:39:46;;;;;;;;;;;;;;;21.84;49.15;100429.16;5093793;28;980;-33
2021/07/16 04:42:12;;;;;;;;;;;;;;;23.29;47.83;100424.22;5089706;28;944;-28
2021/07/16 04:44:37;;;;;;;;;;;;;;;24.20;44.05;100421.56;5097833;28;779;-32
2021/07/16 04:47:03;;;;;;;;;;;;;;;24.63;44.36;100427.66;5097489;28;1126;-36
2021/07/16 04:49:28;;;;;;;;;;;;;;;25.02;43.55;100431.38;5078989;28;1913;-30
2021/07/16 04:51:53;;;;;;;;;;;;;;;25.33;43.27;100438.59;5097438;28;1123;-23
2021/07/16 04:54:19;;;;;;;;;;;;;;;25.33;45.34;100435.91;5097388;28;791;-33
2021/07/16 04:56:44;;;;;;;;;;;;;;;25.83;41.67;100435.56;5096729;28;1049;-27
2021/07/16 04:59:09;;;;;;;;;;;;;;;26.03;40.97;100435.03;5097013;28;975;-35
2021/07/16 05:01:35;;;;;;;;;;;;;;;26.16;40.51;100437.94;5097457;28;780;-25
2021/07/16 05:04:00;;;;;;;;;;;;;;;26.36;39.72;100436.59;5097567;28;770;-25
2021/07/16 05:06:25;;;;;;;;;;;;;;;26.35;40.12;100443.84;5097176;28;883;-24
2021/07/16 05:08:50;;;;;;;;;;;;;;;26.58;40.36;100436.66;5096625;28;1909;-30
2021/07/16 05:11:16;;;;;;;;;;;;;;;26.75;39.73;100434.63;5096324;28;915;-24
2021/07/16 05:13:42;;;;;;;;;;;;;;;26.88;39.17;100442.03;5078562;28;1158;-35
2021/07/16 05:16:07;;;;;;;;;;;;;;;27.00;38.71;100443.22;5097170;28;913;-25
2021/07/16 05:18:33;;;;;;;;;;;;;;;27.10;38.32;100440.25;5096745;28;890;-31
2021/07/16 05:20:58;;;;;;;;;;;;;;;27.29;38.57;100443.38;5097130;28;756;-24
2021/07/16 05:23:24;;;;;;;;;;;;;;;27.29;37.71;100434.41;5096628;28;867;-26
2021/07/16 05:25:49;;;;;;;;;;;;;;;27.32;38.35;100429.47;5096628;28;989;-24
2021/07/16 05:28:14;;;;;;;;;;;;;;;27.53;38.65;100427.78;5084488;28;1969;-24
2021/07/16 05:30:40;;;;;;;;;;;;;;;27.19;39.53;100432.88;5076402;28;740;-25
2021/07/16 05:33:05;;;;;;;;;;;;;;;26.81;39.95;100433.84;5077401;28;810;-24
2021/07/16 05:35:30;;;;;;;;;;;;;;;27.35;38.07;100431.78;5076775;28;771;-34
2021/07/16 05:37:55;;;;;;;;;;;;;;;27.50;37.64;100429.03;5076686;28;755;-23
2021/07/16 05:40:21;;;;;;;;;;;;;;;27.73;36.92;100429.84;5058212;28;821;-35
2021/07/16 05:42:46;;;;;;;;;;;;;;;27.68;36.82;100438.56;5093667;28;998;-24
2021/07/16 05:45:11;;;;;;;;;;;;;;;27.84;37.41;100426.63;5096437;28;755;-27
2021/07/16 05:47:37;;;;;;;;;;;;;;;28.03;37.07;100434.28;5096728;28;1277;-27
2021/07/16 05:50:02;;;;;;;;;;;;;;;28.08;35.81;100429.06;5096556;28;1913;-25
2021/07/16 05:52:28;;;;;;;;;;;;;;;28.08;35.26;100429.06;5096535;28;1170;-35
2021/07/16 05:54:54;;;;;;;;;;;;;;;28.11;35.11;100426.81;5096473;28;842;-29
2021/07/16 05:57:19;;;;;;;;;;;;;;;28.13;35.38;100423.09;5096074;28;951;-26
2021/07/16 05:59:44;;;;;;;;;;;;;;;28.20;35.17;100424.81;5096244;28;775;-26
2021/07/16 06:02:10;;;;;;;;;;;;;;;28.20;35.41;100429.38;5096731;28;771;-26
2021/07/16 06:04:35;;;;;;;;;;;;;;;28.17;35.60;100419.78;5096679;28;829;-24
2021/07/16 06:07:01;;;;;;;;;;;;;;;28.16;36.20;100425.41;5096447;28;759;-29
2021/07/16 06:09:26;;;;;;;;;;;;;;;28.35;35.84;100422.00;5096133;28;2226;-23
2021/07/16 06:11:51;;;;;;;;;;;;;;;28.31;35.62;100425.28;5096146;28;907;-32
2021/07/16 06:14:18;;;;;;;;;;;;;;;28.18;36.15;100420.59;5096319;28;987;-24
2021/07/16 06:16:44;;;;;;;;;;;;;;;28.04;35.76;100417.00;5079987;28;1016;-31
2021/07/16 06:19:09;;;;;;;;;;;;;;;28.17;35.54;100418.94;5075942;28;839;-25
2021/07/16 06:21:35;;;;;;;;;;;;;;;28.24;35.60;100419.84;5078214;28;742;-25
2021/07/16 06:24:00;;;;;;;;;;;;;;;28.16;35.57;100420.81;5080467;28;867;-25
2021/07/16 06:26:25;;;;;;;;;;;;;;;28.25;36.28;100416.09;5085898;28;935;-26
2021/07/16 06:28:50;;;;;;;;;;;;;;;28.29;36.05;100409.25;5100265;28;1959;-26
2021/07/16 06:31:16;;;;;;;;;;;;;;;28.39;35.48;100414.34;5100410;28;812;-25
2021/07/16 06:33:41;;;;;;;;;;;;;;;28.07;35.36;100409.34;5100288;28;732;-28
2021/07/16 06:36:06;;;;;;;;;;;;;;;28.33;35.16;100407.00;5099605;28;843;-26
2021/07/16 06:38:31;;;;;;;;;;;;;;;28.17;36.10;100405.44;5100353;28;810;-35
2021/07/16 06:40:57;;;;;;;;;;;;;;;28.31;35.50;100399.06;5099279;28;954;-27
2021/07/16 06:43:22;;;;;;;;;;;;;;;28.42;35.25;100396.84;5099996;28;855;-35
2021/07/16 06:45:47;;;;;;;;;;;;;;;28.52;35.81;100401.91;5100129;28;907;-26
2021/07/16 06:48:13;;;;;;;;;;;;;;;28.52;35.81;100405.44;5099311;28;1975;-24
2021/07/16 06:50:38;;;;;;;;;;;;;;;28.56;34.66;100400.47;5099382;28;1103;-24
2021/07/16 06:53:03;;;;;;;;;;;;;;;28.55;34.51;100402.34;5099969;28;798;-34
2021/07/16 06:55:29;;;;;;;;;;;;;;;28.58;34.58;100401.09;5099982;28;780;-27
2021/07/16 06:57:54;;;;;;;;;;;;;;;28.55;34.69;100396.09;5099228;28;935;-25
2021/07/16 07:00:19;;;;;;;;;;;;;;;28.62;34.61;100399.66;5099435;28;811;-25
2021/07/16 07:02:45;;;;;;;;;;;;;;;28.68;34.37;100395.28;5099682;28;843;-36
2021/07/16 07:05:10;;;;;;;;;;;;;;;28.73;34.71;100407.19;5099634;28;760;-30
2021/07/16 07:07:35;;;;;;;;;;;;;;;28.49;35.00;100400.44;5099775;28;859;-28
2021/07/16 07:10:01;;;;;;;;;;;;;;;28.60;34.53;100399.03;5099304;28;1901;-29
2021/07/16 07:12:26;;;;;;;;;;;;;;;28.69;34.67;100395.13;5098898;28;930;-24
2021/07/16 07:14:52;;;;;;;;;;;;;;;28.64;34.43;100389.47;5099375;28;756;-34
2021/07/16 07:17:18;;;;;;;;;;;;;;;28.45;35.02;100393.75;5099614;28;794;-34
2021/07/16 07:19:43;;;;;;;;;;;;;;;28.31;35.27;100390.94;5098961;28;898;-34
2021/07/16 07:22:09;;;;;;;;;;;;;;;28.38;34.98;100385.59;5099521;28;830;-35
2021/07/16 07:24:34;;;;;;;;;;;;;;;28.61;34.73;100392.59;5098918;28;810;-26
2021/07/16 07:26:59;;;;;;;;;;;;;;;28.60;34.75;100397.16;5098593;28;935;-34
2021/07/16 07:29:25;;;;;;;;;;;;;;;28.65;34.38;100401.13;5098940;28;1964;-26
2021/07/16 07:31:50;;;;;;;;;;;;;;;28.51;35.06;100400.25;5099045;28;786;-31
2021/07/16 07:34:15;;;;;;;;;;;;;;;28.43;34.82;100393.94;5098562;28;858;-25
2021/07/16 07:36:41;;;;;;;;;;;;;;;28.43;35.17;100393.09;5099094;28;854;-33
2021/07/16 07:39:06;;;;;;;;;;;;;;;28.55;35.02;100396.09;5098540;28;804;-25
2021/07/16 07:41:31;;;;;;;;;;;;;;;28.59;34.63;100398.19;5098171;28;982;-35
2021/07/16 07:43:57;;;;;;;;;;;;;;;28.54;34.94;100399.84;5099235;28;712;-27
2021/07/16 07:46:23;;;;;;;;;;;;;;;28.63;34.84;100398.63;5098834;28;782;-35
2021/07/16 07:48:48;;;;;;;;;;;;;;;28.72;34.55;100402.00;5098732;28;2043;-29
2021/07/16 07:51:13;;;;;;;;;;;;;;;28.63;34.83;100395.91;5092258;28;1103;-37
2021/07/16 07:53:38;;;;;;;;;;;;;;;28.50;35.41;100395.84;5078587;28;1005;-27
2021/07/16 07:56:04;;;;;;;;;;;;;;;28.47;35.45;100399.81;5081356;28;943;-27
2021/07/16 07:58:29;;;;;;;;;;;;;;;28.55;35.15;100401.50;5098584;28;808;-36
2021/07/16 08:00:54;;;;;;;;;;;;;;;28.54;35.34;100397.13;5098293;28;791;-26
2021/07/16 08:03:20;;;;;;;;;;;;;;;28.52;35.61;100394.63;5098776;28;762;-26
2021/07/16 08:05:45;;;;;;;;;;;;;;;28.57;35.24;100391.31;5097831;28;905;-26
2021/07/16 08:08:10;;;;;;;;;;;;;;;28.64;35.54;100402.16;5098594;28;1969;-29
2021/07/16 08:10:36;;;;;;;;;;;;;;;28.56;35.39;100405.88;5098200;28;875;-30
2021/07/16 08:13:01;;;;;;;;;;;;;;;28.69;35.38;100405.09;5097782;28;990;-34
2021/07/16 08:15:26;;;;;;;;;;;;;;;28.59;35.68;100405.47;5098459;28;754;-26
2021/07/16 08:17:52;;;;;;;;;;;;;;;28.64;35.80;100400.31;5097849;28;1535;-34
2021/07/16 08:20:17;;;;;;;;;;;;;;;28.66;36.01;100405.50;5098599;28;787;-29
2021/07/16 08:22:42;;;;;;;;;;;;;;;28.57;35.86;100388.59;5098195;28;791;-35
2021/07/16 08:25:08;;;;;;;;;;;;;;;28.65;36.00;100390.28;5097962;28;798;-32
2021/07/16 08:27:33;;;;;;;;;;;;;;;28.73;35.80;100384.69;5077946;28;943;-33
2021/07/16 08:29:59;;;;;;;;;;;;;;;28.71;36.24;100386.78;5098006;28;1897;-28
2021/07/16 08:32:24;;;;;;;;;;;;;;;28.78;35.93;100386.81;5097523;28;799;-28
2021/07/16 08:34:49;;;;;;;;;;;;;;;28.75;36.00;100373.66;5097945;28;878;-35
2021/07/16 08:37:14;;;;;;;;;;;;;;;28.56;37.09;100379.63;5098178;28;875;-27
2021/07/16 08:39:40;;;;;;;;;;;;;;;28.74;36.35;100380.97;5097787;28;815;-37
2021/07/16 08:42:05;;;;;;;;;;;;;;;28.56;36.65;100376.94;5097180;28;938;-27
2021/07/16 08:44:30;;;;;;;;;;;;;;;28.62;36.30;100375.31;5079503;28;842;-35
2021/07/16 08:46:56;;;;;;;;;;;;;;;28.44;36.90;100375.84;5097564;28;1418;-29
2021/07/16 08:49:21;;;;;;;;;;;;;;;28.43;36.96;100375.00;5097802;28;1949;-31
2021/07/16 08:51:46;;;;;;;;;;;;;;;28.57;36.80;100369.66;5078985;28;1120;-30
2021/07/16 08:54:17;;;;;;;;;;;;;;;28.41;36.66;100363.56;5078556;28;810;-31
2021/07/16 08:56:42;;;;;;;;;;;;;;;28.69;36.39;100372.63;5096574;28;1002;-27
2021/07/16 08:59:10;;;;;;;;;;;;;;;28.81;36.36;100370.16;5097117;28;838;-30
2021/07/16 09:01:36;;;;;;;;;;;;;;;28.96;36.30;100362.69;5097500;28;776;-27
2021/07/16 09:04:01;;;;;;;;;;;;;;;28.93;36.44;100365.81;5097773;28;885;-34
2021/07/16 09:06:45;;;;;;;;;;;;;;;28.92;36.28;100369.56;5097136;28;1443;-25
2021/07/16 09:09:11;;;;;;;;;;;;;;;29.00;36.15;100363.16;5096564;28;1902;-26
2021/07/16 09:11:40;;;;;;;;;;;;;;;28.92;36.40;100369.56;5096963;28;970;-30
2021/07/16 09:14:05;;;;;;;;;;;;;;;28.93;36.48;100368.53;5097096;28;788;-26
2021/07/16 09:16:30;;;;;;;;;;;;;;;28.94;37.10;100363.94;5097365;28;754;-28
2021/07/16 09:18:59;;;;;;;;;;;;;;;29.05;36.66;100367.94;5097218;28;878;-28
2021/07/16 09:21:24;;;;;;;;;;;;;;;29.11;36.23;100371.72;5096954;28;819;-29
2021/07/16 09:23:49;;;;;;;;;;;;;;;29.05;36.60;100365.25;5097020;28;763;-33
2021/07/16 09:26:16;;;;;;;;;;;;;;;29.00;36.58;100360.44;5092552;28;942;-34
2021/07/16 09:28:42;;;;;;;;;;;;;;;29.08;36.68;100365.66;5076866;28;1901;-35
2021/07/16 09:31:37;;;;;;;;;;;;;;;29.12;36.46;100360.69;5077217;28;792;-29
2021/07/16 09:34:06;;;;;;;;;;;;;;;29.17;36.54;100369.03;5073926;28;1563;-27
2021/07/16 09:36:33;;;;;;;;;;;;;;;29.08;36.45;100354.84;5076583;28;779;-30
2021/07/16 09:39:12;;;;;;;;;;;;;;;29.13;36.72;100350.69;5076614;28;756;-33
2021/07/16 09:41:51;;;;;;;;;;;;;;;29.13;36.71;100348.78;5083374;28;954;-26
2021/07/16 09:44:25;;;;;;;;;;;;;;;29.09;36.68;100342.94;5097157;28;857;-27
2021/07/16 09:47:06;;;;;;;;;;;;;;;29.07;36.89;100347.75;5096911;28;1076;-32
2021/07/16 09:49:32;;;;;;;;;;;;;;;29.03;36.88;100345.69;5096094;28;1906;-31
2021/07/16 09:51:58;;;;;;;;;;;;;;;28.93;36.89;100343.31;5096420;28;1111;-25
2021/07/16 09:54:24;;;;;;;;;;;;;;;28.99;36.62;100339.84;5078610;28;1138;-27
2021/07/16 09:56:49;;;;;;;;;;;;;;;29.03;36.74;100345.69;5095358;28;868;-31
2021/07/16 09:59:15;;;;;;;;;;;;;;;29.16;36.63;100342.97;5096579;28;776;-27
2021/07/16 10:01:44;;;;;;;;;;;;;;;29.25;36.43;100340.88;5096529;28;756;-27
2021/07/16 10:04:16;;;;;;;;;;;;;;;29.33;36.16;100329.84;5096555;28;807;-34
2021/07/16 10:06:41;;;;;;;;;;;;;;;29.24;36.35;100333.81;5096548;28;879;-32
2021/07/16 10:09:07;;;;;;;;;;;;;;;29.29;36.35;100322.34;5096561;28;1959;-34
2021/07/16 10:11:32;;;;;;;;;;;;;;;29.26;36.24;100320.88;5070951;28;986;-32
2021/07/16 10:13:57;;;;;;;;;;;;;;;29.30;36.41;100322.13;5057945;28;822;-31
2021/07/16 10:16:23;;;;;;;;;;;;;;;29.30;36.62;100315.88;5057965;28;1322;-32
2021/07/16 10:18:48;;;;;;;;;;;;;;;29.32;36.64;100313.81;5076112;28;791;-30
2021/07/16 10:21:13;;;;;;;;;;;;;;;29.27;36.72;100316.28;5076602;28;736;-35
2021/07/16 10:23:39;;;;;;;;;;;;;;;29.23;36.75;100307.75;5075799;28;751;-30
2021/07/16 10:26:07;;;;;;;;;;;;;;;29.31;36.70;100307.53;5079045;28;958;-25
2021/07/16 10:28:42;;;;;;;;;;;;;;;29.34;36.39;100307.13;5095740;28;1962;-26
2021/07/16 10:31:26;;;;;;;;;;;;;;;29.27;36.99;100300.88;5095852;28;779;-26
2021/07/16 10:33:51;;;;;;;;;;;;;;;29.31;36.86;100304.84;5096120;28;1088;-28
2021/07/16 10:36:18;;;;;;;;;;;;;;;29.25;36.89;100304.84;5096235;28;799;-28
2021/07/16 10:38:44;;;;;;;;;;;;;;;29.21;37.19;100307.16;5077707;28;1270;-28
2021/07/16 10:41:21;;;;;;;;;;;;;;;29.26;37.08;100304.63;5076660;28;1377;-26
2021/07/16 10:43:46;;;;;;;;;;;;;;;29.23;37.00;100301.53;5077822;28;1330;-35
2021/07/16 10:46:28;;;;;;;;;;;;;;;29.35;36.83;100297.13;5096160;28;783;-31
2021/07/16 10:48:53;;;;;;;;;;;;;;;29.26;36.89;100304.63;5095902;28;1975;-35
2021/07/16 10:51:23;;;;;;;;;;;;;;;29.34;36.73;100301.69;5095941;28;1139;-26
2021/07/16 10:53:48;;;;;;;;;;;;;;;29.42;36.47;100303.38;5095573;28;825;-35
2021/07/16 10:56:18;;;;;;;;;;;;;;;29.43;36.75;100304.19;5095319;28;950;-26
2021/07/16 10:58:43;;;;;;;;;;;;;;;29.33;36.59;100299.19;5095747;28;801;-28
2021/07/16 11:01:09;;;;;;;;;;;;;;;29.40;36.48;100301.91;5096178;28;755;-25
2021/07/16 11:03:44;;;;;;;;;;;;;;;29.33;36.80;100301.91;5096059;28;751;-26
2021/07/16 11:06:10;;;;;;;;;;;;;;;29.36;36.63;100300.69;5095441;28;879;-30
2021/07/16 11:08:36;;;;;;;;;;;;;;;28.63;36.93;100292.25;5079430;28;1898;-31
2021/07/16 11:11:08;;;;;;;;;;;;;;;29.16;36.95;100291.50;5098758;28;942;-32
2021/07/16 11:13:37;;;;;;;;;;;;;;;29.31;36.69;100291.28;5099673;28;783;-25
2021/07/16 11:16:15;;;;;;;;;;;;;;;29.34;36.68;100292.75;5099567;28;791;-27
2021/07/16 11:18:53;;;;;;;;;;;;;;;28.11;37.89;100283.50;5099265;28;767;-35
2021/07/16 11:21:38;;;;;;;;;;;;;;;28.08;38.19;100289.31;5099421;28;767;-36
2021/07/16 11:24:03;;;;;;;;;;;;;;;27.99;38.17;100285.94;5098829;28;866;-33
2021/07/16 11:26:28;;;;;;;;;;;;;;;28.24;37.44;100276.50;5099010;28;962;-34
2021/07/16 11:28:54;;;;;;;;;;;;;;;28.94;37.17;100278.16;5099337;28;1967;-31
2021/07/16 11:31:19;;;;;;;;;;;;;;;28.71;37.65;100287.47;5099025;28;798;-21
2021/07/16 11:33:57;;;;;;;;;;;;;;;28.66;37.55;100286.44;5099166;28;767;-23
2021/07/16 11:36:24;;;;;;;;;;;;;;;28.81;36.11;100291.66;5099366;28;763;-24
2021/07/16 11:38:53;;;;;;;;;;;;;;;28.58;34.93;100282.88;5099048;28;799;-26
2021/07/16 11:41:27;;;;;;;;;;;;;;;28.44;33.83;100283.88;5098627;28;1014;-24
2021/07/16 11:43:53;;;;;;;;;;;;;;;28.48;32.73;100285.97;5098102;28;870;-25
2021/07/16 11:46:25;;;;;;;;;;;;;;;28.45;32.22;100282.81;5099057;28;807;-25
2021/07/16 11:48:50;;;;;;;;;;;;;;;28.39;31.91;100281.78;5098407;28;1906;-25
2021/07/16 11:51:15;;;;;;;;;;;;;;;28.51;31.92;100281.19;5098950;28;1131;-24
2021/07/16 11:53:40;;;;;;;;;;;;;;;28.75;31.79;100279.78;5098926;28;846;-24
2021/07/16 11:56:12;;;;;;;;;;;;;;;28.79;31.93;100274.78;5098380;28;1009;-24
2021/07/16 11:58:46;;;;;;;;;;;;;;;28.83;32.11;100282.28;5082644;28;828;-25
2021/07/16 12:01:12;;;;;;;;;;;;;;;28.77;32.10;100274.16;5078536;28;768;-26
2021/07/16 12:03:37;;;;;;;;;;;;;;;28.72;32.24;100278.31;5078479;28;785;-22
2021/07/16 12:06:04;;;;;;;;;;;;;;;28.57;32.42;100281.22;5095397;28;1147;-25
2021/07/16 12:08:30;;;;;;;;;;;;;;;28.84;32.01;100273.13;5098104;28;1949;-25
2021/07/16 12:11:02;;;;;;;;;;;;;;;29.00;31.75;100273.78;5097718;28;927;-24
2021/07/16 12:13:27;;;;;;;;;;;;;;;29.00;32.38;100272.94;5097971;28;972;-23
2021/07/16 12:15:59;;;;;;;;;;;;;;;29.14;32.11;100276.50;5098699;28;779;-24
2021/07/16 12:18:24;;;;;;;;;;;;;;;29.12;31.92;100278.59;5097957;28;796;-23
2021/07/16 12:20:54;;;;;;;;;;;;;;;29.12;31.83;100274.00;5080123;28;755;-23
2021/07/16 12:23:20;;;;;;;;;;;;;;;29.25;31.75;100269.63;5080618;28;862;-23
2021/07/16 12:25:45;;;;;;;;;;;;;;;29.21;31.72;100267.34;5097640;28;990;-22
2021/07/16 12:28:17;;;;;;;;;;;;;;;29.11;31.88;100266.94;5097536;28;1969;-23
2021/07/16 12:30:43;;;;;;;;;;;;;;;29.05;31.85;100262.34;5098104;28;810;-23
2021/07/16 12:33:08;;;;;;;;;;;;;;;29.08;32.14;100264.63;5097924;28;816;-24
2021/07/16 12:35:37;;;;;;;;;;;;;;;29.21;31.95;100263.81;5097183;28;855;-23
2021/07/16 12:38:03;;;;;;;;;;;;;;;29.20;31.79;100260.25;5098381;28;755;-22
2021/07/16 12:40:28;;;;;;;;;;;;;;;29.20;31.67;100262.13;5097379;28;776;-23
2021/07/16 12:42:58;;;;;;;;;;;;;;;29.20;31.78;100256.72;5097120;28;935;-24
2021/07/16 12:45:26;;;;;;;;;;;;;;;29.17;31.69;100263.38;5098052;28;812;-24
2021/07/16 12:47:52;;;;;;;;;;;;;;;29.13;31.89;100259.41;5088168;28;1392;-25
2021/07/16 12:50:23;;;;;;;;;;;;;;;29.09;32.17;100250.06;5117770;28;2261;-24